Mauston, WI (53948)

04:00 PM CDT die 23o August, anno 2016 (GMT -0500)
Juneau County Weather | | Change Station

Elev 873 ft 43.80 °N, 90.07 °W | Updated 0 second ago

Mostly Cloudy
Plerumque Nubila
79.6 °F
Feels Like 82 °F
N
11.0
Ventus Variabilis Ventus from Magis Auster quam Eurus
Gusts 11.0 mph

Hodie
High -- | Low -- °F
--% Chance of Precip.
Yesterday
High -- | Low -- °F
Precip. -- in
Pressio 30.05 in
Visibilitas 10.0 milia passuum
Clouds Nubes Dispersae 4000 ft
Plerumque Nubila 20000 ft
Index Caloris 82 °F
Frigus in quo Ros apparet 66 °F
Umor 64%
Rainfall 0.00 in
Snow Depth Not available.
6:14 AM 7:50 PM
Waning Gibbous, 65% visible
METAR KVOK 231958Z 16014KT 10SM SCT040 BKN200 27/18 A3005 RMK AO2A SLP175
Pressio 30.05 in
Visibilitas 10.0 milia passuum
Clouds Nubes Dispersae 4000 ft
Plerumque Nubila 20000 ft
Index Caloris 82 °F
Frigus in quo Ros apparet 66 °F
Umor 64%
Rainfall 0.00 in
Snow Depth Not available.
6:14 AM 7:50 PM
Waning Gibbous, 65% visible
METAR KVOK 231958Z 16014KT 10SM SCT040 BKN200 27/18 A3005 RMK AO2A SLP175

10-Day Weather Forecast

Almanac

Astronomy

Aug. 23, 2016 Rise Set
Actual Time
Civil Twilight
Nautical Twilight
Astronomical Twilight
Moon
Length Of Visible Light
Length of Day
Tomorrow will be .
, % of the Moon is Illuminated

Today's Extremes

State Highs State Lows

Community

WunderPhotos

Upload Photos

1,934,453 photos uploaded!

WunderBlog® & News

Nearby

Air Quality

  Air Quality AQ Index Pollutant
Not available.

Snow Depth

Station Depth Elevation

Earthquake Activity

City Distance Mag. Time & Date
Minimum magnitude displayed is 2.5.

Coastal Water Temperatures

Locus Calor

Stations

Nearby Weather Stations

Station Location Temp Frigus Venti Frigus in quo Ros apparet Umor Ventus Precip. Elev Renovata Type
                   

Watches & Warnings

There are currently no watches in effect.